Terminal Aerodrome Forecast
Issued by NWS Grand Forks, ND

Home | Current Version | Previous Version | Text Only | Print | Product List | Glossary On
Versions: 1 2 3 4 5 6 7 8 9 10 11 12 13 14 15 16 17 18 19
000
FTUS43 KFGF 301900 AAA
TAFFAR
TAF AMD
KFAR 301903Z 3019/3118 18014G19KT P6SM BKN080
      TEMPO 3100/3102 BKN020
     FM310200 32014KT P6SM OVC015=

USA.gov is the U.S. government's official web portal to all federal, state and local government web resources and services.